sensor_id;sensor_type;location;lat;lon;timestamp;P1;durP1;ratioP1;P2;durP2;ratioP2
80179;SDS011;69505;52.134;5.438;2023-12-22T00:01:23;6.15;;;1.15;;
80179;SDS011;69505;52.134;5.438;2023-12-22T00:03:50;5.15;;;0.98;;
80179;SDS011;69505;52.134;5.438;2023-12-22T00:06:16;6.07;;;1.20;;
80179;SDS011;69505;52.134;5.438;2023-12-22T00:08:43;5.90;;;0.90;;
80179;SDS011;69505;52.134;5.438;2023-12-22T00:11:10;5.35;;;0.75;;
80179;SDS011;69505;52.134;5.438;2023-12-22T00:13:37;9.50;;;0.95;;
80179;SDS011;69505;52.134;5.438;2023-12-22T00:16:03;2.67;;;0.47;;
80179;SDS011;69505;52.134;5.438;2023-12-22T00:18:30;2.08;;;0.55;;
80179;SDS011;69505;52.134;5.438;2023-12-22T00:20:57;6.07;;;0.60;;
80179;SDS011;69505;52.134;5.438;2023-12-22T00:23:24;7.10;;;0.60;;
80179;SDS011;69505;52.134;5.438;2023-12-22T00:25:50;4.88;;;0.75;;
80179;SDS011;69505;52.134;5.438;2023-12-22T00:28:17;3.38;;;0.45;;
80179;SDS011;69505;52.134;5.438;2023-12-22T00:30:44;2.42;;;0.70;;
80179;SDS011;69505;52.134;5.438;2023-12-22T00:33:10;5.63;;;0.80;;
80179;SDS011;69505;52.134;5.438;2023-12-22T00:35:37;3.75;;;0.68;;
80179;SDS011;69505;52.134;5.438;2023-12-22T00:38:04;3.63;;;0.55;;
80179;SDS011;69505;52.134;5.438;2023-12-22T00:40:31;3.63;;;0.68;;
80179;SDS011;69505;52.134;5.438;2023-12-22T00:42:57;1.52;;;0.50;;
80179;SDS011;69505;52.134;5.438;2023-12-22T00:45:24;4.60;;;0.50;;
80179;SDS011;69505;52.134;5.438;2023-12-22T00:47:50;3.28;;;1.02;;
80179;SDS011;69505;52.134;5.438;2023-12-22T00:50:18;2.55;;;0.50;;
80179;SDS011;69505;52.134;5.438;2023-12-22T00:52:44;3.00;;;0.80;;
80179;SDS011;69505;52.134;5.438;2023-12-22T00:55:11;2.25;;;0.47;;
80179;SDS011;69505;52.134;5.438;2023-12-22T00:57:38;3.33;;;0.63;;
80179;SDS011;69505;52.134;5.438;2023-12-22T01:00:05;5.65;;;0.70;;
80179;SDS011;69505;52.134;5.438;2023-12-22T01:02:35;3.92;;;1.70;;
80179;SDS011;69505;52.134;5.438;2023-12-22T01:05:02;4.60;;;1.20;;
80179;SDS011;69505;52.134;5.438;2023-12-22T01:07:29;3.47;;;0.80;;
80179;SDS011;69505;52.134;5.438;2023-12-22T01:09:55;4.35;;;1.00;;
80179;SDS011;69505;52.134;5.438;2023-12-22T01:12:27;7.13;;;1.23;;
80179;SDS011;69505;52.134;5.438;2023-12-22T01:14:55;3.67;;;0.50;;
80179;SDS011;69505;52.134;5.438;2023-12-22T01:17:25;5.13;;;1.00;;
80179;SDS011;69505;52.134;5.438;2023-12-22T01:19:51;4.60;;;0.90;;
80179;SDS011;69505;52.134;5.438;2023-12-22T01:22:18;4.15;;;0.65;;
80179;SDS011;69505;52.134;5.438;2023-12-22T01:24:45;3.85;;;0.93;;
80179;SDS011;69505;52.134;5.438;2023-12-22T01:27:12;7.97;;;0.98;;
80179;SDS011;69505;52.134;5.438;2023-12-22T01:29:39;12.45;;;1.00;;
80179;SDS011;69505;52.134;5.438;2023-12-22T01:32:06;4.28;;;0.88;;
80179;SDS011;69505;52.134;5.438;2023-12-22T01:34:33;4.28;;;0.73;;
80179;SDS011;69505;52.134;5.438;2023-12-22T01:36:59;7.35;;;0.80;;
80179;SDS011;69505;52.134;5.438;2023-12-22T01:39:26;7.50;;;1.02;;
80179;SDS011;69505;52.134;5.438;2023-12-22T01:41:52;3.45;;;0.88;;
80179;SDS011;69505;52.134;5.438;2023-12-22T01:44:19;7.30;;;1.50;;
80179;SDS011;69505;52.134;5.438;2023-12-22T01:46:45;8.60;;;1.27;;
80179;SDS011;69505;52.134;5.438;2023-12-22T01:49:12;10.55;;;0.93;;
80179;SDS011;69505;52.134;5.438;2023-12-22T01:51:41;7.10;;;1.15;;
80179;SDS011;69505;52.134;5.438;2023-12-22T01:54:09;6.15;;;1.00;;
80179;SDS011;69505;52.134;5.438;2023-12-22T01:56:36;3.38;;;0.90;;
80179;SDS011;69505;52.134;5.438;2023-12-22T01:59:03;8.63;;;1.17;;
80179;SDS011;69505;52.134;5.438;2023-12-22T02:01:31;8.18;;;1.15;;
80179;SDS011;69505;52.134;5.438;2023-12-22T02:03:58;7.10;;;0.90;;
80179;SDS011;69505;52.134;5.438;2023-12-22T02:06:25;5.35;;;1.02;;
80179;SDS011;69505;52.134;5.438;2023-12-22T02:08:52;7.95;;;2.38;;
80179;SDS011;69505;52.134;5.438;2023-12-22T02:11:20;5.80;;;0.88;;
80179;SDS011;69505;52.134;5.438;2023-12-22T02:13:46;11.80;;;1.40;;
80179;SDS011;69505;52.134;5.438;2023-12-22T02:18:51;6.28;;;1.23;;
80179;SDS011;69505;52.134;5.438;2023-12-22T02:21:21;5.72;;;1.00;;
80179;SDS011;69505;52.134;5.438;2023-12-22T02:23:48;8.20;;;1.38;;
80179;SDS011;69505;52.134;5.438;2023-12-22T02:26:48;8.90;;;1.35;;
80179;SDS011;69505;52.134;5.438;2023-12-22T02:29:10;10.98;;;1.13;;
80179;SDS011;69505;52.134;5.438;2023-12-22T02:31:42;7.70;;;1.13;;
80179;SDS011;69505;52.134;5.438;2023-12-22T02:34:18;5.90;;;1.08;;
80179;SDS011;69505;52.134;5.438;2023-12-22T02:36:46;13.15;;;1.30;;
80179;SDS011;69505;52.134;5.438;2023-12-22T02:39:15;14.05;;;1.67;;
80179;SDS011;69505;52.134;5.438;2023-12-22T02:44:12;9.52;;;1.27;;
80179;SDS011;69505;52.134;5.438;2023-12-22T02:46:39;14.35;;;1.80;;
80179;SDS011;69505;52.134;5.438;2023-12-22T02:49:08;12.65;;;2.33;;
80179;SDS011;69505;52.134;5.438;2023-12-22T02:51:35;18.00;;;1.98;;
80179;SDS011;69505;52.134;5.438;2023-12-22T02:54:02;8.52;;;1.20;;
80179;SDS011;69505;52.134;5.438;2023-12-22T02:56:28;13.93;;;1.70;;
80179;SDS011;69505;52.134;5.438;2023-12-22T02:58:55;10.70;;;1.65;;
80179;SDS011;69505;52.134;5.438;2023-12-22T03:01:21;11.20;;;1.40;;
80179;SDS011;69505;52.134;5.438;2023-12-22T03:03:48;12.60;;;1.58;;
80179;SDS011;69505;52.134;5.438;2023-12-22T03:06:15;9.98;;;2.20;;
80179;SDS011;69505;52.134;5.438;2023-12-22T03:08:41;15.95;;;1.80;;
80179;SDS011;69505;52.134;5.438;2023-12-22T03:11:08;9.75;;;1.40;;
80179;SDS011;69505;52.134;5.438;2023-12-22T03:13:34;10.23;;;2.30;;
80179;SDS011;69505;52.134;5.438;2023-12-22T03:16:01;14.48;;;1.95;;
80179;SDS011;69505;52.134;5.438;2023-12-22T03:18:28;14.95;;;1.92;;
80179;SDS011;69505;52.134;5.438;2023-12-22T03:20:55;8.20;;;1.10;;
80179;SDS011;69505;52.134;5.438;2023-12-22T03:23:21;13.57;;;1.48;;
80179;SDS011;69505;52.134;5.438;2023-12-22T03:25:48;9.23;;;1.60;;
80179;SDS011;69505;52.134;5.438;2023-12-22T03:28:15;11.35;;;1.40;;
80179;SDS011;69505;52.134;5.438;2023-12-22T03:30:41;9.95;;;1.27;;
80179;SDS011;69505;52.134;5.438;2023-12-22T03:33:08;9.23;;;1.80;;
80179;SDS011;69505;52.134;5.438;2023-12-22T03:35:35;11.82;;;2.30;;
80179;SDS011;69505;52.134;5.438;2023-12-22T03:38:02;9.13;;;1.30;;
80179;SDS011;69505;52.134;5.438;2023-12-22T03:40:29;7.07;;;1.15;;
80179;SDS011;69505;52.134;5.438;2023-12-22T03:42:56;3.28;;;0.80;;
80179;SDS011;69505;52.134;5.438;2023-12-22T03:45:23;6.22;;;1.13;;
80179;SDS011;69505;52.134;5.438;2023-12-22T03:47:49;3.42;;;1.65;;
80179;SDS011;69505;52.134;5.438;2023-12-22T03:50:16;4.78;;;1.58;;
80179;SDS011;69505;52.134;5.438;2023-12-22T03:52:43;3.65;;;0.90;;
80179;SDS011;69505;52.134;5.438;2023-12-22T03:55:11;4.50;;;0.60;;
80179;SDS011;69505;52.134;5.438;2023-12-22T03:57:37;4.40;;;1.02;;
80179;SDS011;69505;52.134;5.438;2023-12-22T04:00:04;6.00;;;0.75;;
80179;SDS011;69505;52.134;5.438;2023-12-22T04:02:31;2.33;;;0.60;;
80179;SDS011;69505;52.134;5.438;2023-12-22T04:04:57;3.55;;;0.55;;
80179;SDS011;69505;52.134;5.438;2023-12-22T04:07:24;4.03;;;1.05;;
80179;SDS011;69505;52.134;5.438;2023-12-22T04:09:51;6.20;;;1.63;;
80179;SDS011;69505;52.134;5.438;2023-12-22T04:12:18;3.70;;;0.90;;
80179;SDS011;69505;52.134;5.438;2023-12-22T04:14:44;4.32;;;0.85;;
80179;SDS011;69505;52.134;5.438;2023-12-22T04:17:11;3.92;;;0.70;;
80179;SDS011;69505;52.134;5.438;2023-12-22T04:19:37;6.93;;;0.90;;
80179;SDS011;69505;52.134;5.438;2023-12-22T04:22:04;4.07;;;0.60;;
80179;SDS011;69505;52.134;5.438;2023-12-22T04:24:31;5.53;;;1.73;;
80179;SDS011;69505;52.134;5.438;2023-12-22T04:26:57;5.65;;;1.08;;
80179;SDS011;69505;52.134;5.438;2023-12-22T04:29:24;3.03;;;0.80;;
80179;SDS011;69505;52.134;5.438;2023-12-22T04:31:50;6.28;;;0.80;;
80179;SDS011;69505;52.134;5.438;2023-12-22T04:34:17;6.80;;;1.02;;
80179;SDS011;69505;52.134;5.438;2023-12-22T04:36:44;9.00;;;1.20;;
80179;SDS011;69505;52.134;5.438;2023-12-22T04:39:10;8.05;;;1.00;;
80179;SDS011;69505;52.134;5.438;2023-12-22T04:41:37;6.10;;;0.80;;
80179;SDS011;69505;52.134;5.438;2023-12-22T04:44:04;9.23;;;1.30;;
80179;SDS011;69505;52.134;5.438;2023-12-22T04:46:31;13.65;;;1.50;;
80179;SDS011;69505;52.134;5.438;2023-12-22T04:48:58;3.60;;;0.70;;
80179;SDS011;69505;52.134;5.438;2023-12-22T04:51:24;9.02;;;1.50;;
80179;SDS011;69505;52.134;5.438;2023-12-22T04:53:51;10.88;;;1.23;;
80179;SDS011;69505;52.134;5.438;2023-12-22T04:56:18;12.13;;;1.35;;
80179;SDS011;69505;52.134;5.438;2023-12-22T04:58:45;9.43;;;1.88;;
80179;SDS011;69505;52.134;5.438;2023-12-22T05:01:11;9.85;;;1.50;;
80179;SDS011;69505;52.134;5.438;2023-12-22T05:03:38;10.43;;;1.50;;
80179;SDS011;69505;52.134;5.438;2023-12-22T05:06:05;8.02;;;0.93;;
80179;SDS011;69505;52.134;5.438;2023-12-22T05:08:32;15.30;;;1.75;;
80179;SDS011;69505;52.134;5.438;2023-12-22T05:10:58;16.00;;;2.05;;
80179;SDS011;69505;52.134;5.438;2023-12-22T05:13:25;14.55;;;1.67;;
80179;SDS011;69505;52.134;5.438;2023-12-22T05:15:51;8.55;;;1.17;;
80179;SDS011;69505;52.134;5.438;2023-12-22T05:18:18;10.75;;;1.52;;
80179;SDS011;69505;52.134;5.438;2023-12-22T05:20:45;9.30;;;1.55;;
80179;SDS011;69505;52.134;5.438;2023-12-22T05:23:11;6.20;;;1.40;;
80179;SDS011;69505;52.134;5.438;2023-12-22T05:25:38;9.38;;;1.27;;
80179;SDS011;69505;52.134;5.438;2023-12-22T05:28:06;9.98;;;1.33;;
80179;SDS011;69505;52.134;5.438;2023-12-22T05:30:33;10.25;;;1.63;;
80179;SDS011;69505;52.134;5.438;2023-12-22T05:33:00;10.35;;;1.88;;
80179;SDS011;69505;52.134;5.438;2023-12-22T05:35:27;7.60;;;1.27;;
80179;SDS011;69505;52.134;5.438;2023-12-22T05:37:53;14.50;;;1.92;;
80179;SDS011;69505;52.134;5.438;2023-12-22T05:40:20;8.18;;;1.42;;
80179;SDS011;69505;52.134;5.438;2023-12-22T05:42:47;10.27;;;1.70;;
80179;SDS011;69505;52.134;5.438;2023-12-22T05:45:14;12.07;;;1.13;;
80179;SDS011;69505;52.134;5.438;2023-12-22T05:47:41;10.18;;;1.30;;
80179;SDS011;69505;52.134;5.438;2023-12-22T05:50:08;11.98;;;1.45;;
80179;SDS011;69505;52.134;5.438;2023-12-22T05:52:35;8.70;;;1.17;;
80179;SDS011;69505;52.134;5.438;2023-12-22T05:55:01;4.60;;;1.05;;
80179;SDS011;69505;52.134;5.438;2023-12-22T05:57:28;8.13;;;1.15;;
80179;SDS011;69505;52.134;5.438;2023-12-22T05:59:55;7.90;;;1.15;;
80179;SDS011;69505;52.134;5.438;2023-12-22T06:02:21;9.80;;;2.40;;
80179;SDS011;69505;52.134;5.438;2023-12-22T06:04:48;10.50;;;1.17;;
80179;SDS011;69505;52.134;5.438;2023-12-22T06:07:15;15.18;;;1.60;;
80179;SDS011;69505;52.134;5.438;2023-12-22T06:09:42;10.52;;;1.13;;
80179;SDS011;69505;52.134;5.438;2023-12-22T06:12:08;12.30;;;1.17;;
80179;SDS011;69505;52.134;5.438;2023-12-22T06:14:39;9.55;;;1.20;;
80179;SDS011;69505;52.134;5.438;2023-12-22T06:17:05;6.35;;;1.20;;
80179;SDS011;69505;52.134;5.438;2023-12-22T06:19:32;6.80;;;1.15;;
80179;SDS011;69505;52.134;5.438;2023-12-22T06:21:59;16.10;;;2.25;;
80179;SDS011;69505;52.134;5.438;2023-12-22T06:24:26;9.07;;;1.23;;
80179;SDS011;69505;52.134;5.438;2023-12-22T06:26:53;14.18;;;1.63;;
80179;SDS011;69505;52.134;5.438;2023-12-22T06:29:20;8.75;;;0.98;;
80179;SDS011;69505;52.134;5.438;2023-12-22T06:31:46;6.10;;;1.45;;
80179;SDS011;69505;52.134;5.438;2023-12-22T06:34:17;14.05;;;3.13;;
80179;SDS011;69505;52.134;5.438;2023-12-22T06:36:44;11.10;;;1.45;;
80179;SDS011;69505;52.134;5.438;2023-12-22T06:39:10;9.77;;;1.67;;
80179;SDS011;69505;52.134;5.438;2023-12-22T06:41:37;9.13;;;1.73;;
80179;SDS011;69505;52.134;5.438;2023-12-22T06:44:04;10.48;;;1.40;;
80179;SDS011;69505;52.134;5.438;2023-12-22T06:46:30;14.57;;;2.05;;
80179;SDS011;69505;52.134;5.438;2023-12-22T06:48:58;9.48;;;1.40;;
80179;SDS011;69505;52.134;5.438;2023-12-22T06:51:27;11.68;;;1.85;;
80179;SDS011;69505;52.134;5.438;2023-12-22T06:53:56;10.60;;;1.42;;
80179;SDS011;69505;52.134;5.438;2023-12-22T06:56:24;10.70;;;1.33;;
80179;SDS011;69505;52.134;5.438;2023-12-22T06:58:54;9.88;;;1.42;;
80179;SDS011;69505;52.134;5.438;2023-12-22T07:01:25;11.43;;;1.40;;
80179;SDS011;69505;52.134;5.438;2023-12-22T07:03:56;9.98;;;1.23;;
80179;SDS011;69505;52.134;5.438;2023-12-22T07:06:24;12.00;;;2.30;;
80179;SDS011;69505;52.134;5.438;2023-12-22T07:11:43;14.13;;;1.55;;
80179;SDS011;69505;52.134;5.438;2023-12-22T07:14:14;9.43;;;1.60;;
80179;SDS011;69505;52.134;5.438;2023-12-22T07:16:41;17.17;;;2.15;;
80179;SDS011;69505;52.134;5.438;2023-12-22T07:19:09;14.25;;;1.83;;
80179;SDS011;69505;52.134;5.438;2023-12-22T07:21:37;15.63;;;2.22;;
80179;SDS011;69505;52.134;5.438;2023-12-22T07:24:04;11.45;;;1.80;;
80179;SDS011;69505;52.134;5.438;2023-12-22T07:26:31;21.02;;;2.38;;
80179;SDS011;69505;52.134;5.438;2023-12-22T07:28:58;10.65;;;1.65;;
80179;SDS011;69505;52.134;5.438;2023-12-22T07:31:24;12.18;;;2.20;;
80179;SDS011;69505;52.134;5.438;2023-12-22T07:33:52;13.20;;;2.15;;
80179;SDS011;69505;52.134;5.438;2023-12-22T07:36:19;16.00;;;2.28;;
80179;SDS011;69505;52.134;5.438;2023-12-22T07:38:48;14.52;;;2.22;;
80179;SDS011;69505;52.134;5.438;2023-12-22T07:41:15;20.15;;;2.22;;
80179;SDS011;69505;52.134;5.438;2023-12-22T07:43:43;15.73;;;2.08;;
80179;SDS011;69505;52.134;5.438;2023-12-22T07:46:16;15.65;;;2.85;;
80179;SDS011;69505;52.134;5.438;2023-12-22T07:48:46;17.02;;;2.00;;
80179;SDS011;69505;52.134;5.438;2023-12-22T07:51:14;12.98;;;2.20;;
80179;SDS011;69505;52.134;5.438;2023-12-22T07:53:41;11.57;;;1.50;;
80179;SDS011;69505;52.134;5.438;2023-12-22T07:56:08;14.15;;;1.40;;
80179;SDS011;69505;52.134;5.438;2023-12-22T07:58:38;9.80;;;1.52;;
80179;SDS011;69505;52.134;5.438;2023-12-22T08:01:05;7.38;;;1.30;;
80179;SDS011;69505;52.134;5.438;2023-12-22T08:03:34;12.68;;;1.45;;
80179;SDS011;69505;52.134;5.438;2023-12-22T08:06:01;10.35;;;1.63;;
80179;SDS011;69505;52.134;5.438;2023-12-22T08:08:28;14.52;;;1.75;;
80179;SDS011;69505;52.134;5.438;2023-12-22T08:10:55;19.52;;;2.35;;
80179;SDS011;69505;52.134;5.438;2023-12-22T08:13:22;9.43;;;1.85;;
80179;SDS011;69505;52.134;5.438;2023-12-22T08:15:48;18.90;;;2.47;;
80179;SDS011;69505;52.134;5.438;2023-12-22T08:18:15;22.27;;;2.95;;
80179;SDS011;69505;52.134;5.438;2023-12-22T08:20:42;14.70;;;2.00;;
80179;SDS011;69505;52.134;5.438;2023-12-22T08:23:12;13.23;;;2.65;;
80179;SDS011;69505;52.134;5.438;2023-12-22T08:25:40;20.60;;;2.20;;
80179;SDS011;69505;52.134;5.438;2023-12-22T08:28:10;10.63;;;1.85;;
80179;SDS011;69505;52.134;5.438;2023-12-22T08:30:39;12.73;;;3.00;;
80179;SDS011;69505;52.134;5.438;2023-12-22T08:33:05;15.80;;;1.80;;
80179;SDS011;69505;52.134;5.438;2023-12-22T08:35:32;12.48;;;1.98;;
80179;SDS011;69505;52.134;5.438;2023-12-22T08:37:59;13.60;;;2.13;;
80179;SDS011;69505;52.134;5.438;2023-12-22T08:40:26;11.00;;;2.20;;
80179;SDS011;69505;52.134;5.438;2023-12-22T08:42:54;10.68;;;1.45;;
80179;SDS011;69505;52.134;5.438;2023-12-22T08:45:23;6.38;;;1.35;;
80179;SDS011;69505;52.134;5.438;2023-12-22T08:47:49;7.65;;;1.30;;
80179;SDS011;69505;52.134;5.438;2023-12-22T08:50:16;7.70;;;1.08;;
80179;SDS011;69505;52.134;5.438;2023-12-22T08:52:43;9.95;;;1.20;;
80179;SDS011;69505;52.134;5.438;2023-12-22T08:55:10;5.57;;;1.38;;
80179;SDS011;69505;52.134;5.438;2023-12-22T08:57:36;6.38;;;1.13;;
80179;SDS011;69505;52.134;5.438;2023-12-22T09:00:07;10.90;;;1.60;;
80179;SDS011;69505;52.134;5.438;2023-12-22T09:02:34;6.30;;;1.02;;
80179;SDS011;69505;52.134;5.438;2023-12-22T09:05:00;9.80;;;1.73;;
80179;SDS011;69505;52.134;5.438;2023-12-22T09:07:28;8.25;;;1.70;;
80179;SDS011;69505;52.134;5.438;2023-12-22T09:09:54;11.45;;;1.52;;
80179;SDS011;69505;52.134;5.438;2023-12-22T09:12:21;9.38;;;1.65;;
80179;SDS011;69505;52.134;5.438;2023-12-22T09:14:47;6.78;;;1.27;;
80179;SDS011;69505;52.134;5.438;2023-12-22T09:17:14;8.27;;;1.33;;
80179;SDS011;69505;52.134;5.438;2023-12-22T09:19:42;8.50;;;1.40;;
80179;SDS011;69505;52.134;5.438;2023-12-22T09:22:09;8.20;;;1.30;;
80179;SDS011;69505;52.134;5.438;2023-12-22T09:24:36;6.43;;;1.10;;
80179;SDS011;69505;52.134;5.438;2023-12-22T09:27:03;7.53;;;0.93;;
80179;SDS011;69505;52.134;5.438;2023-12-22T09:29:30;3.33;;;0.50;;
80179;SDS011;69505;52.134;5.438;2023-12-22T09:32:01;2.90;;;0.30;;
80179;SDS011;69505;52.134;5.438;2023-12-22T09:34:28;2.30;;;0.50;;
80179;SDS011;69505;52.134;5.438;2023-12-22T09:36:55;1.98;;;0.28;;
80179;SDS011;69505;52.134;5.438;2023-12-22T09:39:22;1.30;;;0.40;;
80179;SDS011;69505;52.134;5.438;2023-12-22T09:41:49;4.03;;;0.57;;
80179;SDS011;69505;52.134;5.438;2023-12-22T09:44:18;0.93;;;0.22;;
80179;SDS011;69505;52.134;5.438;2023-12-22T09:46:50;1.65;;;0.32;;
80179;SDS011;69505;52.134;5.438;2023-12-22T09:49:18;1.38;;;0.40;;
80179;SDS011;69505;52.134;5.438;2023-12-22T09:51:47;2.90;;;0.65;;
80179;SDS011;69505;52.134;5.438;2023-12-22T09:54:15;5.78;;;0.65;;
80179;SDS011;69505;52.134;5.438;2023-12-22T09:56:43;2.53;;;0.50;;
80179;SDS011;69505;52.134;5.438;2023-12-22T09:59:12;7.53;;;0.80;;
80179;SDS011;69505;52.134;5.438;2023-12-22T10:01:43;4.90;;;0.90;;
80179;SDS011;69505;52.134;5.438;2023-12-22T10:04:14;4.22;;;1.00;;
80179;SDS011;69505;52.134;5.438;2023-12-22T10:06:41;4.53;;;0.90;;
80179;SDS011;69505;52.134;5.438;2023-12-22T10:09:08;6.57;;;0.82;;
80179;SDS011;69505;52.134;5.438;2023-12-22T10:11:37;7.68;;;1.27;;
80179;SDS011;69505;52.134;5.438;2023-12-22T10:14:05;7.05;;;0.93;;
80179;SDS011;69505;52.134;5.438;2023-12-22T10:16:32;7.32;;;1.17;;
80179;SDS011;69505;52.134;5.438;2023-12-22T10:18:59;6.93;;;0.93;;
80179;SDS011;69505;52.134;5.438;2023-12-22T10:21:26;3.72;;;1.02;;
80179;SDS011;69505;52.134;5.438;2023-12-22T10:23:53;5.97;;;0.88;;
80179;SDS011;69505;52.134;5.438;2023-12-22T10:26:20;4.40;;;0.85;;
80179;SDS011;69505;52.134;5.438;2023-12-22T10:28:47;6.13;;;0.93;;
80179;SDS011;69505;52.134;5.438;2023-12-22T10:31:15;7.85;;;1.42;;
80179;SDS011;69505;52.134;5.438;2023-12-22T10:33:43;9.57;;;1.00;;
80179;SDS011;69505;52.134;5.438;2023-12-22T10:36:11;4.50;;;0.80;;
80179;SDS011;69505;52.134;5.438;2023-12-22T10:38:37;5.60;;;0.90;;
80179;SDS011;69505;52.134;5.438;2023-12-22T10:41:06;7.13;;;0.90;;
80179;SDS011;69505;52.134;5.438;2023-12-22T10:43:40;4.25;;;0.73;;
80179;SDS011;69505;52.134;5.438;2023-12-22T10:46:07;3.60;;;0.80;;
80179;SDS011;69505;52.134;5.438;2023-12-22T10:48:35;5.85;;;0.70;;
80179;SDS011;69505;52.134;5.438;2023-12-22T10:51:01;5.40;;;0.93;;
80179;SDS011;69505;52.134;5.438;2023-12-22T10:53:28;4.45;;;0.60;;
80179;SDS011;69505;52.134;5.438;2023-12-22T10:55:55;5.22;;;1.13;;
80179;SDS011;69505;52.134;5.438;2023-12-22T10:58:23;5.00;;;0.68;;
80179;SDS011;69505;52.134;5.438;2023-12-22T11:00:50;5.88;;;0.93;;
80179;SDS011;69505;52.134;5.438;2023-12-22T11:03:19;6.25;;;0.80;;
80179;SDS011;69505;52.134;5.438;2023-12-22T11:05:52;5.85;;;0.68;;
80179;SDS011;69505;52.134;5.438;2023-12-22T11:08:21;6.97;;;0.80;;
80179;SDS011;69505;52.134;5.438;2023-12-22T11:10:53;5.70;;;1.42;;
80179;SDS011;69505;52.134;5.438;2023-12-22T11:13:25;3.83;;;0.50;;
80179;SDS011;69505;52.134;5.438;2023-12-22T11:15:53;6.65;;;0.68;;
80179;SDS011;69505;52.134;5.438;2023-12-22T11:18:21;5.88;;;1.13;;
80179;SDS011;69505;52.134;5.438;2023-12-22T11:20:49;6.13;;;0.82;;
80179;SDS011;69505;52.134;5.438;2023-12-22T11:23:17;3.30;;;0.57;;
80179;SDS011;69505;52.134;5.438;2023-12-22T11:25:45;5.03;;;1.05;;
80179;SDS011;69505;52.134;5.438;2023-12-22T11:28:16;7.72;;;0.90;;
80179;SDS011;69505;52.134;5.438;2023-12-22T11:30:44;6.82;;;1.08;;
80179;SDS011;69505;52.134;5.438;2023-12-22T11:33:11;3.47;;;0.80;;
80179;SDS011;69505;52.134;5.438;2023-12-22T11:35:39;7.47;;;1.67;;
80179;SDS011;69505;52.134;5.438;2023-12-22T11:38:07;6.68;;;0.90;;
80179;SDS011;69505;52.134;5.438;2023-12-22T11:43:03;4.07;;;0.60;;
80179;SDS011;69505;52.134;5.438;2023-12-22T11:45:30;9.25;;;0.98;;
80179;SDS011;69505;52.134;5.438;2023-12-22T11:48:04;5.15;;;0.82;;
80179;SDS011;69505;52.134;5.438;2023-12-22T11:50:32;4.93;;;1.40;;
80179;SDS011;69505;52.134;5.438;2023-12-22T11:53:19;7.03;;;1.10;;
80179;SDS011;69505;52.134;5.438;2023-12-22T11:56:03;7.00;;;1.13;;
80179;SDS011;69505;52.134;5.438;2023-12-22T11:58:44;12.73;;;1.02;;
80179;SDS011;69505;52.134;5.438;2023-12-22T12:01:21;7.60;;;1.17;;
80179;SDS011;69505;52.134;5.438;2023-12-22T12:03:53;7.60;;;1.23;;
80179;SDS011;69505;52.134;5.438;2023-12-22T12:08:52;3.15;;;0.50;;
80179;SDS011;69505;52.134;5.438;2023-12-22T12:11:20;3.42;;;0.68;;
80179;SDS011;69505;52.134;5.438;2023-12-22T12:13:47;9.82;;;1.05;;
80179;SDS011;69505;52.134;5.438;2023-12-22T12:16:17;5.38;;;0.90;;
80179;SDS011;69505;52.134;5.438;2023-12-22T12:18:47;5.38;;;0.68;;
80179;SDS011;69505;52.134;5.438;2023-12-22T12:21:15;9.55;;;1.00;;
80179;SDS011;69505;52.134;5.438;2023-12-22T12:23:42;6.45;;;2.00;;
80179;SDS011;69505;52.134;5.438;2023-12-22T12:26:08;6.20;;;0.90;;
80179;SDS011;69505;52.134;5.438;2023-12-22T12:28:38;7.30;;;0.98;;
80179;SDS011;69505;52.134;5.438;2023-12-22T12:31:05;6.80;;;1.00;;
80179;SDS011;69505;52.134;5.438;2023-12-22T12:33:32;3.92;;;0.90;;
80179;SDS011;69505;52.134;5.438;2023-12-22T12:36:02;2.38;;;0.40;;
80179;SDS011;69505;52.134;5.438;2023-12-22T12:41:17;5.03;;;0.98;;
80179;SDS011;69505;52.134;5.438;2023-12-22T12:43:54;4.35;;;1.13;;
80179;SDS011;69505;52.134;5.438;2023-12-22T12:46:22;7.78;;;0.88;;
80179;SDS011;69505;52.134;5.438;2023-12-22T12:49:02;7.10;;;1.00;;
80179;SDS011;69505;52.134;5.438;2023-12-22T12:51:34;5.25;;;0.95;;
80179;SDS011;69505;52.134;5.438;2023-12-22T12:54:04;6.28;;;0.90;;
80179;SDS011;69505;52.134;5.438;2023-12-22T12:56:38;6.60;;;0.80;;
80179;SDS011;69505;52.134;5.438;2023-12-22T12:59:11;3.78;;;0.60;;
80179;SDS011;69505;52.134;5.438;2023-12-22T13:01:40;5.03;;;0.93;;
80179;SDS011;69505;52.134;5.438;2023-12-22T13:04:13;4.60;;;1.08;;
80179;SDS011;69505;52.134;5.438;2023-12-22T13:06:48;5.80;;;0.85;;
80179;SDS011;69505;52.134;5.438;2023-12-22T13:09:15;6.75;;;0.90;;
80179;SDS011;69505;52.134;5.438;2023-12-22T13:11:42;3.55;;;0.77;;
80179;SDS011;69505;52.134;5.438;2023-12-22T13:14:12;5.90;;;0.90;;
80179;SDS011;69505;52.134;5.438;2023-12-22T13:16:51;5.38;;;0.70;;
80179;SDS011;69505;52.134;5.438;2023-12-22T13:19:22;4.47;;;0.63;;
80179;SDS011;69505;52.134;5.438;2023-12-22T13:21:51;5.57;;;0.60;;
80179;SDS011;69505;52.134;5.438;2023-12-22T13:24:19;6.97;;;0.82;;
80179;SDS011;69505;52.134;5.438;2023-12-22T13:26:46;5.25;;;1.00;;
80179;SDS011;69505;52.134;5.438;2023-12-22T13:29:16;5.20;;;0.77;;
80179;SDS011;69505;52.134;5.438;2023-12-22T13:34:12;6.40;;;1.40;;
80179;SDS011;69505;52.134;5.438;2023-12-22T13:36:40;6.38;;;0.80;;
80179;SDS011;69505;52.134;5.438;2023-12-22T13:39:10;4.95;;;0.60;;
80179;SDS011;69505;52.134;5.438;2023-12-22T13:41:40;9.05;;;1.00;;
80179;SDS011;69505;52.134;5.438;2023-12-22T13:44:12;5.65;;;0.90;;
80179;SDS011;69505;52.134;5.438;2023-12-22T13:46:39;8.48;;;1.23;;
80179;SDS011;69505;52.134;5.438;2023-12-22T13:49:08;6.75;;;0.75;;
80179;SDS011;69505;52.134;5.438;2023-12-22T13:51:39;5.72;;;0.65;;
80179;SDS011;69505;52.134;5.438;2023-12-22T13:54:06;5.43;;;0.90;;
80179;SDS011;69505;52.134;5.438;2023-12-22T13:56:36;5.50;;;1.33;;
80179;SDS011;69505;52.134;5.438;2023-12-22T13:59:06;7.35;;;0.90;;
80179;SDS011;69505;52.134;5.438;2023-12-22T14:01:33;7.65;;;1.10;;
80179;SDS011;69505;52.134;5.438;2023-12-22T14:04:00;9.48;;;1.20;;
80179;SDS011;69505;52.134;5.438;2023-12-22T14:06:27;9.40;;;0.85;;
80179;SDS011;69505;52.134;5.438;2023-12-22T14:08:55;4.97;;;0.90;;
80179;SDS011;69505;52.134;5.438;2023-12-22T14:11:22;8.18;;;1.00;;
80179;SDS011;69505;52.134;5.438;2023-12-22T14:13:49;9.27;;;0.95;;
80179;SDS011;69505;52.134;5.438;2023-12-22T14:16:16;7.60;;;1.17;;
80179;SDS011;69505;52.134;5.438;2023-12-22T14:18:42;10.50;;;0.93;;
80179;SDS011;69505;52.134;5.438;2023-12-22T14:21:09;5.95;;;1.00;;
80179;SDS011;69505;52.134;5.438;2023-12-22T14:23:36;10.55;;;0.95;;
80179;SDS011;69505;52.134;5.438;2023-12-22T14:26:02;8.90;;;0.93;;
80179;SDS011;69505;52.134;5.438;2023-12-22T14:28:29;11.50;;;1.60;;
80179;SDS011;69505;52.134;5.438;2023-12-22T14:30:56;10.00;;;1.10;;
80179;SDS011;69505;52.134;5.438;2023-12-22T14:33:23;11.38;;;1.40;;
80179;SDS011;69505;52.134;5.438;2023-12-22T14:35:49;9.35;;;1.30;;
80179;SDS011;69505;52.134;5.438;2023-12-22T14:38:16;7.32;;;1.15;;
80179;SDS011;69505;52.134;5.438;2023-12-22T14:40:43;12.13;;;1.33;;
80179;SDS011;69505;52.134;5.438;2023-12-22T14:43:09;8.52;;;1.02;;
80179;SDS011;69505;52.134;5.438;2023-12-22T14:45:36;7.15;;;1.27;;
80179;SDS011;69505;52.134;5.438;2023-12-22T14:48:03;8.27;;;1.17;;
80179;SDS011;69505;52.134;5.438;2023-12-22T14:50:30;10.40;;;1.00;;
80179;SDS011;69505;52.134;5.438;2023-12-22T14:52:57;7.63;;;1.40;;
80179;SDS011;69505;52.134;5.438;2023-12-22T14:55:24;9.38;;;1.75;;
80179;SDS011;69505;52.134;5.438;2023-12-22T14:57:51;7.85;;;1.55;;
80179;SDS011;69505;52.134;5.438;2023-12-22T15:00:18;11.45;;;1.25;;
80179;SDS011;69505;52.134;5.438;2023-12-22T15:02:45;8.95;;;1.40;;
80179;SDS011;69505;52.134;5.438;2023-12-22T15:05:12;9.88;;;1.33;;